sensor_id;sensor_type;location;lat;lon;timestamp;P1;durP1;ratioP1;P2;durP2;ratioP2
4450;SDS011;2238;50.180;9.230;2022-08-01T00:02:39;6.00;;;3.50;;
4450;SDS011;2238;50.180;9.230;2022-08-01T00:05:40;4.20;;;3.80;;
4450;SDS011;2238;50.180;9.230;2022-08-01T00:08:43;3.80;;;3.50;;
4450;SDS011;2238;50.180;9.230;2022-08-01T00:11:44;3.80;;;3.50;;
4450;SDS011;2238;50.180;9.230;2022-08-01T00:14:44;3.30;;;3.10;;
4450;SDS011;2238;50.180;9.230;2022-08-01T00:17:45;5.53;;;4.43;;
4450;SDS011;2238;50.180;9.230;2022-08-01T00:20:46;3.97;;;3.60;;
4450;SDS011;2238;50.180;9.230;2022-08-01T00:23:47;3.77;;;3.47;;
4450;SDS011;2238;50.180;9.230;2022-08-01T00:26:48;7.60;;;3.60;;
4450;SDS011;2238;50.180;9.230;2022-08-01T00:29:48;4.00;;;3.67;;
4450;SDS011;2238;50.180;9.230;2022-08-01T00:32:49;3.97;;;3.60;;
4450;SDS011;2238;50.180;9.230;2022-08-01T00:35:50;3.67;;;3.37;;
4450;SDS011;2238;50.180;9.230;2022-08-01T00:38:51;4.90;;;3.90;;
4450;SDS011;2238;50.180;9.230;2022-08-01T00:41:53;4.13;;;3.73;;
4450;SDS011;2238;50.180;9.230;2022-08-01T00:44:54;6.77;;;4.40;;
4450;SDS011;2238;50.180;9.230;2022-08-01T00:47:54;3.50;;;3.20;;
4450;SDS011;2238;50.180;9.230;2022-08-01T00:50:55;3.70;;;3.27;;
4450;SDS011;2238;50.180;9.230;2022-08-01T00:53:56;4.37;;;2.93;;
4450;SDS011;2238;50.180;9.230;2022-08-01T00:56:57;3.90;;;3.33;;
4450;SDS011;2238;50.180;9.230;2022-08-01T00:59:58;3.83;;;3.53;;
4450;SDS011;2238;50.180;9.230;2022-08-01T01:02:59;4.40;;;4.00;;
4450;SDS011;2238;50.180;9.230;2022-08-01T01:06:14;4.40;;;3.23;;
4450;SDS011;2238;50.180;9.230;2022-08-01T01:09:50;3.23;;;3.03;;
4450;SDS011;2238;50.180;9.230;2022-08-01T01:13:10;4.20;;;3.57;;
4450;SDS011;2238;50.180;9.230;2022-08-01T01:16:32;3.47;;;3.27;;
4450;SDS011;2238;50.180;9.230;2022-08-01T01:19:41;3.80;;;3.50;;
4450;SDS011;2238;50.180;9.230;2022-08-01T01:22:50;5.33;;;3.23;;
4450;SDS011;2238;50.180;9.230;2022-08-01T01:29:16;3.10;;;2.80;;
4450;SDS011;2238;50.180;9.230;2022-08-01T01:32:33;3.33;;;2.70;;
4450;SDS011;2238;50.180;9.230;2022-08-01T01:35:39;3.77;;;3.47;;
4450;SDS011;2238;50.180;9.230;2022-08-01T01:38:45;4.53;;;3.33;;
4450;SDS011;2238;50.180;9.230;2022-08-01T01:41:46;3.67;;;3.37;;
4450;SDS011;2238;50.180;9.230;2022-08-01T01:44:48;3.97;;;3.67;;
4450;SDS011;2238;50.180;9.230;2022-08-01T01:47:50;3.57;;;3.27;;
4450;SDS011;2238;50.180;9.230;2022-08-01T01:50:52;3.60;;;3.30;;
4450;SDS011;2238;50.180;9.230;2022-08-01T01:53:54;3.70;;;3.40;;
4450;SDS011;2238;50.180;9.230;2022-08-01T01:56:56;4.10;;;2.93;;
4450;SDS011;2238;50.180;9.230;2022-08-01T01:59:59;4.30;;;3.37;;
4450;SDS011;2238;50.180;9.230;2022-08-01T02:03:01;3.93;;;3.27;;
4450;SDS011;2238;50.180;9.230;2022-08-01T02:06:03;3.13;;;2.93;;
4450;SDS011;2238;50.180;9.230;2022-08-01T02:09:05;5.07;;;3.70;;
4450;SDS011;2238;50.180;9.230;2022-08-01T02:12:11;4.07;;;3.30;;
4450;SDS011;2238;50.180;9.230;2022-08-01T02:15:13;3.80;;;3.50;;
4450;SDS011;2238;50.180;9.230;2022-08-01T02:18:14;4.17;;;2.93;;
4450;SDS011;2238;50.180;9.230;2022-08-01T02:21:19;4.10;;;3.00;;
4450;SDS011;2238;50.180;9.230;2022-08-01T02:25:00;3.90;;;3.37;;
4450;SDS011;2238;50.180;9.230;2022-08-01T02:28:48;3.50;;;3.20;;
4450;SDS011;2238;50.180;9.230;2022-08-01T02:31:34;3.70;;;3.37;;
4450;SDS011;2238;50.180;9.230;2022-08-01T02:34:38;4.30;;;3.70;;
4450;SDS011;2238;50.180;9.230;2022-08-01T02:37:40;4.33;;;3.50;;
4450;SDS011;2238;50.180;9.230;2022-08-01T02:40:43;3.57;;;3.27;;
4450;SDS011;2238;50.180;9.230;2022-08-01T02:43:48;4.10;;;3.80;;
4450;SDS011;2238;50.180;9.230;2022-08-01T02:46:52;4.80;;;4.37;;
4450;SDS011;2238;50.180;9.230;2022-08-01T02:49:57;3.73;;;3.43;;
4450;SDS011;2238;50.180;9.230;2022-08-01T02:52:59;4.30;;;3.90;;
4450;SDS011;2238;50.180;9.230;2022-08-01T02:56:01;4.43;;;3.87;;
4450;SDS011;2238;50.180;9.230;2022-08-01T02:59:10;3.90;;;3.60;;
4450;SDS011;2238;50.180;9.230;2022-08-01T03:02:14;3.90;;;3.60;;
4450;SDS011;2238;50.180;9.230;2022-08-01T03:05:17;3.33;;;3.00;;
4450;SDS011;2238;50.180;9.230;2022-08-01T03:08:19;5.10;;;3.60;;
4450;SDS011;2238;50.180;9.230;2022-08-01T03:11:22;4.03;;;3.10;;
4450;SDS011;2238;50.180;9.230;2022-08-01T03:14:25;2.90;;;2.70;;
4450;SDS011;2238;50.180;9.230;2022-08-01T03:17:28;3.27;;;2.97;;
4450;SDS011;2238;50.180;9.230;2022-08-01T03:20:30;3.10;;;2.83;;
4450;SDS011;2238;50.180;9.230;2022-08-01T03:23:33;4.60;;;2.90;;
4450;SDS011;2238;50.180;9.230;2022-08-01T03:26:34;3.73;;;3.43;;
4450;SDS011;2238;50.180;9.230;2022-08-01T03:29:38;3.30;;;3.00;;
4450;SDS011;2238;50.180;9.230;2022-08-01T03:32:39;3.43;;;2.60;;
4450;SDS011;2238;50.180;9.230;2022-08-01T03:35:52;2.73;;;2.53;;
4450;SDS011;2238;50.180;9.230;2022-08-01T03:38:55;2.80;;;2.60;;
4450;SDS011;2238;50.180;9.230;2022-08-01T03:42:01;3.87;;;2.90;;
4450;SDS011;2238;50.180;9.230;2022-08-01T03:45:11;3.27;;;2.97;;
4450;SDS011;2238;50.180;9.230;2022-08-01T03:48:37;2.93;;;2.63;;
4450;SDS011;2238;50.180;9.230;2022-08-01T03:51:40;5.57;;;3.40;;
4450;SDS011;2238;50.180;9.230;2022-08-01T03:54:45;3.17;;;2.87;;
4450;SDS011;2238;50.180;9.230;2022-08-01T03:57:47;3.60;;;3.30;;
4450;SDS011;2238;50.180;9.230;2022-08-01T04:00:49;3.13;;;2.87;;
4450;SDS011;2238;50.180;9.230;2022-08-01T04:03:50;3.73;;;2.63;;
4450;SDS011;2238;50.180;9.230;2022-08-01T04:06:50;4.27;;;2.90;;
4450;SDS011;2238;50.180;9.230;2022-08-01T04:09:53;3.23;;;2.83;;
4450;SDS011;2238;50.180;9.230;2022-08-01T04:12:54;3.00;;;2.80;;
4450;SDS011;2238;50.180;9.230;2022-08-01T04:15:55;3.00;;;2.80;;
4450;SDS011;2238;50.180;9.230;2022-08-01T04:18:56;2.80;;;2.60;;
4450;SDS011;2238;50.180;9.230;2022-08-01T04:21:57;3.00;;;2.80;;
4450;SDS011;2238;50.180;9.230;2022-08-01T04:24:58;2.73;;;2.50;;
4450;SDS011;2238;50.180;9.230;2022-08-01T04:28:02;3.00;;;2.80;;
4450;SDS011;2238;50.180;9.230;2022-08-01T04:31:05;4.27;;;3.97;;
4450;SDS011;2238;50.180;9.230;2022-08-01T04:34:09;3.63;;;3.00;;
4450;SDS011;2238;50.180;9.230;2022-08-01T04:37:14;4.27;;;3.20;;
4450;SDS011;2238;50.180;9.230;2022-08-01T04:40:18;3.60;;;3.30;;
4450;SDS011;2238;50.180;9.230;2022-08-01T04:43:21;3.53;;;3.10;;
4450;SDS011;2238;50.180;9.230;2022-08-01T04:46:22;3.60;;;3.30;;
4450;SDS011;2238;50.180;9.230;2022-08-01T04:49:24;4.93;;;3.40;;
4450;SDS011;2238;50.180;9.230;2022-08-01T04:52:32;3.33;;;3.13;;
4450;SDS011;2238;50.180;9.230;2022-08-01T04:55:36;3.40;;;3.10;;
4450;SDS011;2238;50.180;9.230;2022-08-01T04:58:37;3.73;;;3.47;;
4450;SDS011;2238;50.180;9.230;2022-08-01T05:01:38;5.70;;;3.90;;
4450;SDS011;2238;50.180;9.230;2022-08-01T05:04:39;5.23;;;3.57;;
4450;SDS011;2238;50.180;9.230;2022-08-01T05:07:40;3.90;;;3.43;;
4450;SDS011;2238;50.180;9.230;2022-08-01T05:10:41;3.93;;;3.63;;
4450;SDS011;2238;50.180;9.230;2022-08-01T05:13:42;4.60;;;4.20;;
4450;SDS011;2238;50.180;9.230;2022-08-01T05:16:42;4.77;;;4.03;;
4450;SDS011;2238;50.180;9.230;2022-08-01T05:19:44;3.53;;;3.23;;
4450;SDS011;2238;50.180;9.230;2022-08-01T05:22:45;5.27;;;3.27;;
4450;SDS011;2238;50.180;9.230;2022-08-01T05:25:45;4.80;;;4.30;;
4450;SDS011;2238;50.180;9.230;2022-08-01T05:28:46;4.17;;;3.87;;
4450;SDS011;2238;50.180;9.230;2022-08-01T05:31:48;4.77;;;4.30;;
4450;SDS011;2238;50.180;9.230;2022-08-01T05:34:49;10.43;;;6.20;;
4450;SDS011;2238;50.180;9.230;2022-08-01T05:37:50;4.00;;;3.70;;
4450;SDS011;2238;50.180;9.230;2022-08-01T05:40:51;5.10;;;4.60;;
4450;SDS011;2238;50.180;9.230;2022-08-01T05:43:52;5.20;;;4.50;;
4450;SDS011;2238;50.180;9.230;2022-08-01T05:46:53;7.63;;;4.30;;
4450;SDS011;2238;50.180;9.230;2022-08-01T05:49:54;4.60;;;4.30;;
4450;SDS011;2238;50.180;9.230;2022-08-01T05:52:55;5.07;;;4.63;;
4450;SDS011;2238;50.180;9.230;2022-08-01T05:55:56;4.97;;;4.30;;
4450;SDS011;2238;50.180;9.230;2022-08-01T05:58:57;4.30;;;3.90;;
4450;SDS011;2238;50.180;9.230;2022-08-01T06:01:58;5.60;;;5.10;;
4450;SDS011;2238;50.180;9.230;2022-08-01T06:04:58;5.47;;;4.87;;
4450;SDS011;2238;50.180;9.230;2022-08-01T06:07:59;5.00;;;4.50;;
4450;SDS011;2238;50.180;9.230;2022-08-01T06:11:00;4.70;;;4.40;;
4450;SDS011;2238;50.180;9.230;2022-08-01T06:14:02;4.67;;;4.27;;
4450;SDS011;2238;50.180;9.230;2022-08-01T06:17:02;4.30;;;3.60;;
4450;SDS011;2238;50.180;9.230;2022-08-01T06:20:04;4.20;;;3.90;;
4450;SDS011;2238;50.180;9.230;2022-08-01T06:23:06;4.73;;;4.33;;
4450;SDS011;2238;50.180;9.230;2022-08-01T06:26:07;4.63;;;4.23;;
4450;SDS011;2238;50.180;9.230;2022-08-01T06:29:08;4.87;;;4.27;;
4450;SDS011;2238;50.180;9.230;2022-08-01T06:32:09;5.37;;;4.03;;
4450;SDS011;2238;50.180;9.230;2022-08-01T06:35:09;4.77;;;4.37;;
4450;SDS011;2238;50.180;9.230;2022-08-01T06:38:10;5.63;;;3.57;;
4450;SDS011;2238;50.180;9.230;2022-08-01T06:41:11;3.80;;;3.40;;
4450;SDS011;2238;50.180;9.230;2022-08-01T06:44:12;4.50;;;4.20;;
4450;SDS011;2238;50.180;9.230;2022-08-01T06:47:13;4.70;;;4.30;;
4450;SDS011;2238;50.180;9.230;2022-08-01T06:50:14;7.80;;;4.13;;
4450;SDS011;2238;50.180;9.230;2022-08-01T06:53:14;4.23;;;3.93;;
4450;SDS011;2238;50.180;9.230;2022-08-01T06:56:15;7.07;;;4.50;;
4450;SDS011;2238;50.180;9.230;2022-08-01T06:59:16;5.13;;;4.73;;
4450;SDS011;2238;50.180;9.230;2022-08-01T07:02:17;6.10;;;5.60;;
4450;SDS011;2238;50.180;9.230;2022-08-01T07:05:18;5.50;;;5.00;;
4450;SDS011;2238;50.180;9.230;2022-08-01T07:08:20;4.70;;;4.30;;
4450;SDS011;2238;50.180;9.230;2022-08-01T07:11:21;4.90;;;4.30;;
4450;SDS011;2238;50.180;9.230;2022-08-01T07:14:23;4.37;;;4.07;;
4450;SDS011;2238;50.180;9.230;2022-08-01T07:17:24;4.33;;;4.00;;
4450;SDS011;2238;50.180;9.230;2022-08-01T07:20:25;6.50;;;4.77;;
4450;SDS011;2238;50.180;9.230;2022-08-01T07:23:26;5.00;;;4.20;;
4450;SDS011;2238;50.180;9.230;2022-08-01T07:26:27;5.47;;;4.90;;
4450;SDS011;2238;50.180;9.230;2022-08-01T07:29:28;5.23;;;4.77;;
4450;SDS011;2238;50.180;9.230;2022-08-01T07:32:29;5.90;;;5.40;;
4450;SDS011;2238;50.180;9.230;2022-08-01T07:35:30;5.70;;;5.20;;
4450;SDS011;2238;50.180;9.230;2022-08-01T07:38:31;6.93;;;6.30;;
4450;SDS011;2238;50.180;9.230;2022-08-01T07:41:32;10.90;;;6.87;;
4450;SDS011;2238;50.180;9.230;2022-08-01T07:44:33;6.03;;;5.40;;
4450;SDS011;2238;50.180;9.230;2022-08-01T07:47:34;5.50;;;5.10;;
4450;SDS011;2238;50.180;9.230;2022-08-01T07:50:35;7.53;;;5.53;;
4450;SDS011;2238;50.180;9.230;2022-08-01T07:53:36;5.00;;;4.50;;
4450;SDS011;2238;50.180;9.230;2022-08-01T07:56:37;4.87;;;4.50;;
4450;SDS011;2238;50.180;9.230;2022-08-01T07:59:38;6.03;;;5.53;;
4450;SDS011;2238;50.180;9.230;2022-08-01T08:02:39;4.50;;;4.20;;
4450;SDS011;2238;50.180;9.230;2022-08-01T08:05:41;4.90;;;4.50;;
4450;SDS011;2238;50.180;9.230;2022-08-01T08:08:43;6.40;;;4.00;;
4450;SDS011;2238;50.180;9.230;2022-08-01T08:11:44;4.50;;;4.20;;
4450;SDS011;2238;50.180;9.230;2022-08-01T08:14:45;4.93;;;4.53;;
4450;SDS011;2238;50.180;9.230;2022-08-01T08:17:46;4.30;;;3.90;;
4450;SDS011;2238;50.180;9.230;2022-08-01T08:20:47;4.40;;;4.10;;
4450;SDS011;2238;50.180;9.230;2022-08-01T08:23:48;5.03;;;4.73;;
4450;SDS011;2238;50.180;9.230;2022-08-01T08:27:08;5.07;;;4.60;;
4450;SDS011;2238;50.180;9.230;2022-08-01T08:30:08;4.20;;;3.90;;
4450;SDS011;2238;50.180;9.230;2022-08-01T08:33:11;4.63;;;3.77;;
4450;SDS011;2238;50.180;9.230;2022-08-01T08:36:13;4.10;;;3.80;;
4450;SDS011;2238;50.180;9.230;2022-08-01T08:39:14;4.30;;;3.90;;
4450;SDS011;2238;50.180;9.230;2022-08-01T08:42:15;9.37;;;5.10;;
4450;SDS011;2238;50.180;9.230;2022-08-01T08:45:16;4.60;;;4.20;;
4450;SDS011;2238;50.180;9.230;2022-08-01T08:48:17;6.20;;;4.53;;
4450;SDS011;2238;50.180;9.230;2022-08-01T08:51:18;4.30;;;4.00;;
4450;SDS011;2238;50.180;9.230;2022-08-01T08:54:21;4.23;;;3.83;;
4450;SDS011;2238;50.180;9.230;2022-08-01T08:57:23;4.20;;;3.90;;
4450;SDS011;2238;50.180;9.230;2022-08-01T09:00:24;4.20;;;3.67;;
4450;SDS011;2238;50.180;9.230;2022-08-01T09:03:25;4.23;;;3.93;;
4450;SDS011;2238;50.180;9.230;2022-08-01T09:06:26;5.20;;;4.70;;
4450;SDS011;2238;50.180;9.230;2022-08-01T09:09:28;5.07;;;4.53;;
4450;SDS011;2238;50.180;9.230;2022-08-01T09:12:29;4.13;;;3.80;;
4450;SDS011;2238;50.180;9.230;2022-08-01T09:15:46;5.43;;;4.93;;
4450;SDS011;2238;50.180;9.230;2022-08-01T09:18:52;5.33;;;4.93;;
4450;SDS011;2238;50.180;9.230;2022-08-01T09:22:00;5.40;;;4.90;;
4450;SDS011;2238;50.180;9.230;2022-08-01T09:25:09;7.20;;;4.90;;
4450;SDS011;2238;50.180;9.230;2022-08-01T09:28:10;5.90;;;5.30;;
4450;SDS011;2238;50.180;9.230;2022-08-01T09:31:12;5.80;;;5.00;;
4450;SDS011;2238;50.180;9.230;2022-08-01T09:34:15;7.00;;;5.90;;
4450;SDS011;2238;50.180;9.230;2022-08-01T09:37:29;5.93;;;5.00;;
4450;SDS011;2238;50.180;9.230;2022-08-01T09:43:48;5.90;;;5.50;;
4450;SDS011;2238;50.180;9.230;2022-08-01T09:46:54;6.67;;;6.07;;
4450;SDS011;2238;50.180;9.230;2022-08-01T09:49:56;6.10;;;5.50;;
4450;SDS011;2238;50.180;9.230;2022-08-01T09:52:57;6.80;;;6.30;;
4450;SDS011;2238;50.180;9.230;2022-08-01T09:56:10;7.23;;;6.57;;
4450;SDS011;2238;50.180;9.230;2022-08-01T09:59:12;6.77;;;6.27;;
4450;SDS011;2238;50.180;9.230;2022-08-01T10:02:14;9.90;;;6.30;;
4450;SDS011;2238;50.180;9.230;2022-08-01T10:05:30;4.70;;;4.30;;
4450;SDS011;2238;50.180;9.230;2022-08-01T10:08:45;5.37;;;4.87;;
4450;SDS011;2238;50.180;9.230;2022-08-01T10:11:46;7.47;;;5.67;;
4450;SDS011;2238;50.180;9.230;2022-08-01T10:35:23;5.73;;;5.13;;
4450;SDS011;2238;50.180;9.230;2022-08-01T10:38:23;5.93;;;5.43;;
4450;SDS011;2238;50.180;9.230;2022-08-01T10:41:24;5.40;;;4.90;;
4450;SDS011;2238;50.180;9.230;2022-08-01T10:44:27;5.10;;;4.70;;
4450;SDS011;2238;50.180;9.230;2022-08-01T10:47:46;6.77;;;5.40;;
4450;SDS011;2238;50.180;9.230;2022-08-01T10:50:53;5.90;;;5.30;;
4450;SDS011;2238;50.180;9.230;2022-08-01T10:53:57;5.90;;;5.30;;
4450;SDS011;2238;50.180;9.230;2022-08-01T10:57:04;6.97;;;4.80;;
4450;SDS011;2238;50.180;9.230;2022-08-01T11:00:07;5.23;;;4.70;;
4450;SDS011;2238;50.180;9.230;2022-08-01T11:03:08;4.73;;;4.33;;
4450;SDS011;2238;50.180;9.230;2022-08-01T11:06:15;5.73;;;4.80;;
4450;SDS011;2238;50.180;9.230;2022-08-01T11:09:22;5.33;;;4.93;;
4450;SDS011;2238;50.180;9.230;2022-08-01T11:12:46;6.20;;;5.63;;
4450;SDS011;2238;50.180;9.230;2022-08-01T11:15:46;5.10;;;4.63;;
4450;SDS011;2238;50.180;9.230;2022-08-01T11:18:50;4.87;;;4.57;;
4450;SDS011;2238;50.180;9.230;2022-08-01T11:24:59;4.67;;;4.30;;
4450;SDS011;2238;50.180;9.230;2022-08-01T11:34:16;5.40;;;4.90;;
4450;SDS011;2238;50.180;9.230;2022-08-01T11:37:23;5.07;;;4.67;;
4450;SDS011;2238;50.180;9.230;2022-08-01T11:40:25;5.10;;;4.70;;
4450;SDS011;2238;50.180;9.230;2022-08-01T11:43:27;4.80;;;4.47;;
4450;SDS011;2238;50.180;9.230;2022-08-01T11:49:50;5.20;;;4.80;;
4450;SDS011;2238;50.180;9.230;2022-08-01T11:52:58;5.90;;;5.40;;
4450;SDS011;2238;50.180;9.230;2022-08-01T11:56:00;4.70;;;4.40;;
4450;SDS011;2238;50.180;9.230;2022-08-01T11:59:01;5.27;;;4.87;;
4450;SDS011;2238;50.180;9.230;2022-08-01T12:02:02;6.93;;;5.60;;
4450;SDS011;2238;50.180;9.230;2022-08-01T12:05:05;4.87;;;4.33;;
4450;SDS011;2238;50.180;9.230;2022-08-01T12:08:07;5.23;;;4.83;;
4450;SDS011;2238;50.180;9.230;2022-08-01T12:11:08;5.20;;;4.80;;
4450;SDS011;2238;50.180;9.230;2022-08-01T12:14:09;5.73;;;5.23;;
4450;SDS011;2238;50.180;9.230;2022-08-01T12:17:10;5.00;;;4.70;;
4450;SDS011;2238;50.180;9.230;2022-08-01T12:20:12;5.80;;;5.30;;
4450;SDS011;2238;50.180;9.230;2022-08-01T12:23:15;5.07;;;4.67;;
4450;SDS011;2238;50.180;9.230;2022-08-01T12:26:16;5.53;;;5.13;;
4450;SDS011;2238;50.180;9.230;2022-08-01T12:29:36;5.50;;;5.00;;
4450;SDS011;2238;50.180;9.230;2022-08-01T12:32:39;5.37;;;4.83;;
4450;SDS011;2238;50.180;9.230;2022-08-01T12:35:41;5.50;;;5.00;;
4450;SDS011;2238;50.180;9.230;2022-08-01T12:38:41;13.17;;;6.27;;
4450;SDS011;2238;50.180;9.230;2022-08-01T12:41:42;5.20;;;4.70;;
4450;SDS011;2238;50.180;9.230;2022-08-01T12:44:44;5.23;;;4.83;;
4450;SDS011;2238;50.180;9.230;2022-08-01T12:47:47;5.77;;;5.27;;
4450;SDS011;2238;50.180;9.230;2022-08-01T12:50:48;5.43;;;5.03;;
4450;SDS011;2238;50.180;9.230;2022-08-01T12:53:50;4.90;;;4.60;;
4450;SDS011;2238;50.180;9.230;2022-08-01T12:56:51;5.13;;;4.73;;
4450;SDS011;2238;50.180;9.230;2022-08-01T13:03:26;5.47;;;5.07;;
4450;SDS011;2238;50.180;9.230;2022-08-01T13:06:29;5.67;;;5.10;;
4450;SDS011;2238;50.180;9.230;2022-08-01T13:09:30;5.43;;;5.03;;
4450;SDS011;2238;50.180;9.230;2022-08-01T13:12:32;6.40;;;5.20;;
4450;SDS011;2238;50.180;9.230;2022-08-01T13:15:33;5.40;;;5.00;;
4450;SDS011;2238;50.180;9.230;2022-08-01T13:18:36;5.57;;;5.07;;
4450;SDS011;2238;50.180;9.230;2022-08-01T13:21:37;5.43;;;4.97;;
4450;SDS011;2238;50.180;9.230;2022-08-01T13:24:37;6.07;;;5.47;;
4450;SDS011;2238;50.180;9.230;2022-08-01T13:27:38;9.83;;;8.93;;
4450;SDS011;2238;50.180;9.230;2022-08-01T13:30:39;6.10;;;5.60;;
4450;SDS011;2238;50.180;9.230;2022-08-01T13:33:50;5.37;;;4.97;;
4450;SDS011;2238;50.180;9.230;2022-08-01T13:36:50;6.27;;;5.77;;
4450;SDS011;2238;50.180;9.230;2022-08-01T13:39:51;5.43;;;5.00;;
4450;SDS011;2238;50.180;9.230;2022-08-01T13:42:55;5.23;;;4.83;;
4450;SDS011;2238;50.180;9.230;2022-08-01T13:45:56;5.40;;;5.00;;
4450;SDS011;2238;50.180;9.230;2022-08-01T13:48:57;6.30;;;5.70;;
4450;SDS011;2238;50.180;9.230;2022-08-01T13:51:58;5.90;;;5.50;;
4450;SDS011;2238;50.180;9.230;2022-08-01T13:55:01;6.23;;;5.27;;
4450;SDS011;2238;50.180;9.230;2022-08-01T13:58:02;5.50;;;5.10;;
4450;SDS011;2238;50.180;9.230;2022-08-01T14:01:03;6.27;;;5.67;;
4450;SDS011;2238;50.180;9.230;2022-08-01T14:04:03;5.83;;;5.37;;
4450;SDS011;2238;50.180;9.230;2022-08-01T14:07:05;5.70;;;5.30;;
4450;SDS011;2238;50.180;9.230;2022-08-01T14:10:05;7.50;;;5.07;;
4450;SDS011;2238;50.180;9.230;2022-08-01T14:13:06;7.20;;;5.70;;
4450;SDS011;2238;50.180;9.230;2022-08-01T14:16:07;5.73;;;5.23;;
4450;SDS011;2238;50.180;9.230;2022-08-01T14:19:07;6.00;;;5.50;;
4450;SDS011;2238;50.180;9.230;2022-08-01T14:22:08;5.70;;;5.30;;
4450;SDS011;2238;50.180;9.230;2022-08-01T14:25:08;5.53;;;5.13;;
4450;SDS011;2238;50.180;9.230;2022-08-01T14:28:09;21.97;;;7.67;;
4450;SDS011;2238;50.180;9.230;2022-08-01T14:31:10;6.37;;;5.77;;
4450;SDS011;2238;50.180;9.230;2022-08-01T14:34:10;7.30;;;6.70;;
4450;SDS011;2238;50.180;9.230;2022-08-01T14:37:13;4.90;;;4.60;;
4450;SDS011;2238;50.180;9.230;2022-08-01T14:40:13;5.17;;;4.77;;
4450;SDS011;2238;50.180;9.230;2022-08-01T14:43:14;5.53;;;5.03;;
4450;SDS011;2238;50.180;9.230;2022-08-01T14:46:14;5.60;;;5.10;;
4450;SDS011;2238;50.180;9.230;2022-08-01T14:49:15;6.83;;;5.13;;
4450;SDS011;2238;50.180;9.230;2022-08-01T14:52:16;5.23;;;4.83;;
4450;SDS011;2238;50.180;9.230;2022-08-01T14:55:17;8.13;;;5.13;;
4450;SDS011;2238;50.180;9.230;2022-08-01T14:58:18;5.00;;;4.60;;
4450;SDS011;2238;50.180;9.230;2022-08-01T15:01:18;4.73;;;4.33;;
4450;SDS011;2238;50.180;9.230;2022-08-01T15:04:19;4.70;;;4.30;;
4450;SDS011;2238;50.180;9.230;2022-08-01T15:07:20;5.30;;;4.97;;
4450;SDS011;2238;50.180;9.230;2022-08-01T15:10:21;6.50;;;5.93;;
4450;SDS011;2238;50.180;9.230;2022-08-01T15:13:22;7.10;;;6.43;;
4450;SDS011;2238;50.180;9.230;2022-08-01T15:16:23;8.50;;;6.43;;
4450;SDS011;2238;50.180;9.230;2022-08-01T15:19:24;6.50;;;5.90;;
4450;SDS011;2238;50.180;9.230;2022-08-01T15:22:25;6.67;;;6.07;;
4450;SDS011;2238;50.180;9.230;2022-08-01T15:25:28;7.33;;;6.53;;
4450;SDS011;2238;50.180;9.230;2022-08-01T15:28:29;6.13;;;5.20;;
4450;SDS011;2238;50.180;9.230;2022-08-01T15:31:30;6.30;;;4.97;;
4450;SDS011;2238;50.180;9.230;2022-08-01T15:34:30;6.83;;;5.03;;
4450;SDS011;2238;50.180;9.230;2022-08-01T15:37:31;5.17;;;4.77;;
4450;SDS011;2238;50.180;9.230;2022-08-01T15:40:32;4.53;;;4.20;;
4450;SDS011;2238;50.180;9.230;2022-08-01T15:43:34;4.20;;;3.90;;
4450;SDS011;2238;50.180;9.230;2022-08-01T15:46:35;5.00;;;4.60;;
4450;SDS011;2238;50.180;9.230;2022-08-01T15:49:36;5.30;;;4.47;;
4450;SDS011;2238;50.180;9.230;2022-08-01T15:52:38;4.63;;;4.30;;
4450;SDS011;2238;50.180;9.230;2022-08-01T15:55:39;4.20;;;3.80;;
4450;SDS011;2238;50.180;9.230;2022-08-01T15:58:40;4.93;;;4.50;;
4450;SDS011;2238;50.180;9.230;2022-08-01T16:01:40;4.53;;;4.13;;
4450;SDS011;2238;50.180;9.230;2022-08-01T16:04:41;4.70;;;4.30;;
4450;SDS011;2238;50.180;9.230;2022-08-01T16:07:42;4.77;;;4.37;;
4450;SDS011;2238;50.180;9.230;2022-08-01T16:10:42;4.90;;;4.40;;
4450;SDS011;2238;50.180;9.230;2022-08-01T16:13:43;4.67;;;4.37;;
4450;SDS011;2238;50.180;9.230;2022-08-01T16:16:44;4.50;;;4.20;;
4450;SDS011;2238;50.180;9.230;2022-08-01T16:19:45;6.77;;;4.30;;
4450;SDS011;2238;50.180;9.230;2022-08-01T16:22:46;4.40;;;4.10;;
4450;SDS011;2238;50.180;9.230;2022-08-01T16:25:46;4.90;;;4.50;;
4450;SDS011;2238;50.180;9.230;2022-08-01T16:28:47;5.27;;;4.23;;
4450;SDS011;2238;50.180;9.230;2022-08-01T16:31:51;5.03;;;4.60;;
4450;SDS011;2238;50.180;9.230;2022-08-01T16:34:51;4.93;;;4.63;;
4450;SDS011;2238;50.180;9.230;2022-08-01T16:37:52;5.20;;;4.80;;
4450;SDS011;2238;50.180;9.230;2022-08-01T16:40:52;6.20;;;5.13;;
4450;SDS011;2238;50.180;9.230;2022-08-01T16:43:54;5.73;;;5.33;;
4450;SDS011;2238;50.180;9.230;2022-08-01T16:46:55;5.30;;;4.90;;
4450;SDS011;2238;50.180;9.230;2022-08-01T16:49:55;6.20;;;5.70;;
4450;SDS011;2238;50.180;9.230;2022-08-01T16:52:56;6.07;;;5.57;;
4450;SDS011;2238;50.180;9.230;2022-08-01T16:55:57;5.67;;;5.17;;
4450;SDS011;2238;50.180;9.230;2022-08-01T16:58:57;6.20;;;5.63;;
4450;SDS011;2238;50.180;9.230;2022-08-01T17:01:58;5.83;;;5.33;;
4450;SDS011;2238;50.180;9.230;2022-08-01T17:04:58;6.47;;;5.87;;
4450;SDS011;2238;50.180;9.230;2022-08-01T17:07:59;5.60;;;5.10;;
4450;SDS011;2238;50.180;9.230;2022-08-01T17:11:00;6.67;;;5.10;;
4450;SDS011;2238;50.180;9.230;2022-08-01T17:14:00;4.83;;;4.53;;
4450;SDS011;2238;50.180;9.230;2022-08-01T17:17:01;13.03;;;6.10;;
4450;SDS011;2238;50.180;9.230;2022-08-01T17:20:02;5.27;;;4.87;;
4450;SDS011;2238;50.180;9.230;2022-08-01T17:23:03;5.73;;;5.13;;
4450;SDS011;2238;50.180;9.230;2022-08-01T17:26:03;6.37;;;4.40;;
4450;SDS011;2238;50.180;9.230;2022-08-01T17:29:04;5.77;;;5.27;;
4450;SDS011;2238;50.180;9.230;2022-08-01T17:32:05;5.97;;;5.47;;
4450;SDS011;2238;50.180;9.230;2022-08-01T17:35:05;6.00;;;5.33;;
4450;SDS011;2238;50.180;9.230;2022-08-01T17:38:06;5.07;;;4.67;;
4450;SDS011;2238;50.180;9.230;2022-08-01T17:41:07;5.47;;;5.07;;
4450;SDS011;2238;50.180;9.230;2022-08-01T17:44:08;5.67;;;5.00;;
4450;SDS011;2238;50.180;9.230;2022-08-01T17:47:09;7.60;;;4.93;;
4450;SDS011;2238;50.180;9.230;2022-08-01T17:50:10;5.60;;;5.20;;
4450;SDS011;2238;50.180;9.230;2022-08-01T17:53:11;5.73;;;5.23;;
4450;SDS011;2238;50.180;9.230;2022-08-01T17:56:13;5.47;;;5.07;;
4450;SDS011;2238;50.180;9.230;2022-08-01T17:59:14;7.10;;;4.90;;
4450;SDS011;2238;50.180;9.230;2022-08-01T18:02:15;5.97;;;5.37;;
4450;SDS011;2238;50.180;9.230;2022-08-01T18:05:16;5.87;;;5.30;;
4450;SDS011;2238;50.180;9.230;2022-08-01T18:08:16;6.50;;;5.47;;
4450;SDS011;2238;50.180;9.230;2022-08-01T18:11:17;5.70;;;5.10;;
4450;SDS011;2238;50.180;9.230;2022-08-01T18:14:17;6.17;;;5.57;;
4450;SDS011;2238;50.180;9.230;2022-08-01T18:17:19;6.30;;;5.80;;
4450;SDS011;2238;50.180;9.230;2022-08-01T18:20:20;7.03;;;6.43;;
4450;SDS011;2238;50.180;9.230;2022-08-01T18:23:21;7.83;;;5.00;;
4450;SDS011;2238;50.180;9.230;2022-08-01T18:26:22;6.43;;;5.83;;
4450;SDS011;2238;50.180;9.230;2022-08-01T18:29:22;5.90;;;5.40;;
4450;SDS011;2238;50.180;9.230;2022-08-01T18:32:23;5.90;;;5.40;;
4450;SDS011;2238;50.180;9.230;2022-08-01T18:35:24;6.20;;;5.70;;
4450;SDS011;2238;50.180;9.230;2022-08-01T18:38:25;6.57;;;6.07;;
4450;SDS011;2238;50.180;9.230;2022-08-01T18:41:26;6.67;;;6.07;;
4450;SDS011;2238;50.180;9.230;2022-08-01T18:44:27;6.70;;;6.00;;
4450;SDS011;2238;50.180;9.230;2022-08-01T18:47:29;6.20;;;5.80;;
4450;SDS011;2238;50.180;9.230;2022-08-01T18:50:29;7.00;;;6.40;;
4450;SDS011;2238;50.180;9.230;2022-08-01T18:53:30;6.43;;;6.03;;
4450;SDS011;2238;50.180;9.230;2022-08-01T18:56:30;6.70;;;6.17;;
4450;SDS011;2238;50.180;9.230;2022-08-01T18:59:31;6.37;;;5.87;;
4450;SDS011;2238;50.180;9.230;2022-08-01T19:02:32;6.23;;;5.73;;
4450;SDS011;2238;50.180;9.230;2022-08-01T19:05:33;7.33;;;6.73;;
4450;SDS011;2238;50.180;9.230;2022-08-01T19:08:34;6.37;;;5.77;;
4450;SDS011;2238;50.180;9.230;2022-08-01T19:11:35;6.33;;;5.93;;
4450;SDS011;2238;50.180;9.230;2022-08-01T19:14:36;6.10;;;5.70;;
4450;SDS011;2238;50.180;9.230;2022-08-01T19:17:36;6.30;;;5.80;;
4450;SDS011;2238;50.180;9.230;2022-08-01T19:20:37;6.30;;;5.60;;
4450;SDS011;2238;50.180;9.230;2022-08-01T19:23:41;7.17;;;5.60;;
4450;SDS011;2238;50.180;9.230;2022-08-01T19:27:01;5.70;;;5.30;;
4450;SDS011;2238;50.180;9.230;2022-08-01T19:30:06;5.93;;;5.43;;
4450;SDS011;2238;50.180;9.230;2022-08-01T19:33:07;5.30;;;4.90;;
4450;SDS011;2238;50.180;9.230;2022-08-01T19:36:13;5.68;;;5.18;;
4450;SDS011;2238;50.180;9.230;2022-08-01T19:39:15;5.33;;;4.83;;